createdAt,value
2018-02-21T00:00:30.477Z,1019.09
2018-02-21T00:01:30.447Z,1019.09
2018-02-21T00:02:30.674Z,1019.10
2018-02-21T00:03:30.401Z,1019.06
2018-02-21T00:04:30.386Z,1019.05
2018-02-21T00:05:30.357Z,1019.07
2018-02-21T00:06:30.332Z,1019.06
2018-02-21T00:07:30.561Z,1019.09
2018-02-21T00:08:30.586Z,1019.07
2018-02-21T00:09:30.876Z,1019.05
2018-02-21T00:10:30.259Z,1019.07
2018-02-21T00:11:30.223Z,1019.07
2018-02-21T00:12:30.202Z,1019.12
2018-02-21T00:13:30.189Z,1019.10
2018-02-21T00:14:30.152Z,1019.09
2018-02-21T00:15:30.132Z,1019.09
2018-02-21T00:16:30.112Z,1019.12
2018-02-21T00:17:30.085Z,1019.14
2018-02-21T00:18:30.067Z,1019.09
2018-02-21T00:19:30.041Z,1019.08
2018-02-21T00:20:30.019Z,1019.11
2018-02-21T00:21:30.000Z,1019.18
2018-02-21T00:22:30.221Z,1019.18
2018-02-21T00:23:29.948Z,1019.19
2018-02-21T00:24:29.923Z,1019.16
2018-02-21T00:25:29.902Z,1019.16
2018-02-21T00:26:29.878Z,1019.23
2018-02-21T00:27:29.861Z,1019.23
2018-02-21T00:28:29.838Z,1019.25
2018-02-21T00:29:29.810Z,1019.25
2018-02-21T00:30:29.795Z,1019.26
2018-02-21T00:31:29.766Z,1019.26
2018-02-21T00:32:29.743Z,1019.24
2018-02-21T00:33:29.720Z,1019.27
2018-02-21T00:34:29.701Z,1019.26
2018-02-21T00:35:29.681Z,1019.23
2018-02-21T00:36:29.655Z,1019.24
2018-02-21T00:37:29.632Z,1019.24
2018-02-21T00:38:29.609Z,1019.21
2018-02-21T00:39:29.586Z,1019.21
2018-02-21T00:40:29.561Z,1019.24
2018-02-21T00:41:29.542Z,1019.23
2018-02-21T00:42:29.517Z,1019.26
2018-02-21T00:43:29.496Z,1019.27
2018-02-21T00:44:29.472Z,1019.24
2018-02-21T00:45:29.449Z,1019.24
2018-02-21T00:46:29.434Z,1019.28
2018-02-21T00:47:29.407Z,1019.27
2018-02-21T00:48:29.633Z,1019.27
2018-02-21T00:49:29.362Z,1019.26
2018-02-21T00:50:29.338Z,1019.26
2018-02-21T00:51:29.320Z,1019.27
2018-02-21T00:52:29.291Z,1019.28
2018-02-21T00:53:29.522Z,1019.27
2018-02-21T00:54:29.249Z,1019.26
2018-02-21T00:55:29.270Z,1019.28
2018-02-21T00:56:29.200Z,1019.27
2018-02-21T00:57:29.180Z,1019.28
2018-02-21T00:58:29.463Z,1019.25
2018-02-21T00:59:29.130Z,1019.26
2018-02-21T01:00:29.108Z,1019.29
2018-02-21T01:01:29.092Z,1019.25
2018-02-21T01:02:29.063Z,1019.27
2018-02-21T01:03:29.043Z,1019.25
2018-02-21T01:04:29.018Z,1019.30
2018-02-21T01:05:28.996Z,1019.29
2018-02-21T01:06:28.972Z,1019.28
2018-02-21T01:07:28.951Z,1019.26
2018-02-21T01:08:28.928Z,1019.26
2018-02-21T01:09:28.904Z,1019.28
2018-02-21T01:10:28.884Z,1019.26
2018-02-21T01:11:28.857Z,1019.31
2018-02-21T01:12:28.837Z,1019.31
2018-02-21T01:13:29.215Z,1019.30
2018-02-21T01:14:28.793Z,1019.31
2018-02-21T01:15:28.774Z,1019.33
2018-02-21T01:16:28.748Z,1019.31
2018-02-21T01:17:28.724Z,1019.33
2018-02-21T01:18:28.804Z,1019.34
2018-02-21T01:19:28.684Z,1019.31
2018-02-21T01:20:28.709Z,1019.33
2018-02-21T01:21:28.634Z,1019.34
2018-02-21T01:22:28.615Z,1019.34
2018-02-21T01:23:28.591Z,1019.39
2018-02-21T01:24:28.767Z,1019.36
2018-02-21T01:25:28.546Z,1019.42
2018-02-21T01:26:28.524Z,1019.40
2018-02-21T01:27:28.502Z,1019.45
2018-02-21T01:28:28.480Z,1019.44
2018-02-21T01:29:28.455Z,1019.43
2018-02-21T01:30:28.435Z,1019.43
2018-02-21T01:31:28.407Z,1019.42
2018-02-21T01:32:28.392Z,1019.43
2018-02-21T01:33:28.360Z,1019.45
2018-02-21T01:34:28.595Z,1019.45
2018-02-21T01:35:28.316Z,1019.47
2018-02-21T01:36:28.328Z,1019.45
2018-02-21T01:37:28.269Z,1019.48
2018-02-21T01:38:28.249Z,1019.48
2018-02-21T01:39:28.229Z,1019.51
2018-02-21T01:40:28.205Z,1019.51
2018-02-21T01:41:28.178Z,1019.56
2018-02-21T01:42:28.174Z,1019.52
2018-02-21T01:43:28.133Z,1019.53
2018-02-21T01:44:28.115Z,1019.55
2018-02-21T01:45:28.092Z,1019.54
2018-02-21T01:46:28.065Z,1019.48
2018-02-21T01:47:28.045Z,1019.51
2018-02-21T01:48:28.019Z,1019.42
2018-02-21T01:49:28.004Z,1019.49
2018-02-21T01:50:27.975Z,1019.47
2018-02-21T01:51:27.953Z,1019.51
2018-02-21T01:52:27.930Z,1019.51
2018-02-21T01:53:27.906Z,1019.51
2018-02-21T01:54:28.135Z,1019.52
2018-02-21T01:55:27.860Z,1019.54
2018-02-21T01:56:27.839Z,1019.54
2018-02-21T01:57:27.826Z,1019.57
2018-02-21T01:58:27.794Z,1019.54
2018-02-21T01:59:27.772Z,1019.56
2018-02-21T02:00:27.746Z,1019.56
2018-02-21T02:01:27.726Z,1019.55
2018-02-21T02:02:27.704Z,1019.57
2018-02-21T02:03:27.680Z,1019.54
2018-02-21T02:04:27.660Z,1019.53
2018-02-21T02:05:27.634Z,1019.52
2018-02-21T02:06:27.613Z,1019.54
2018-02-21T02:07:27.590Z,1019.51
2018-02-21T02:08:27.566Z,1019.50
2018-02-21T02:09:27.544Z,1019.50
2018-02-21T02:10:27.521Z,1019.53
2018-02-21T02:11:27.498Z,1019.54
2018-02-21T02:12:27.476Z,1019.57
2018-02-21T02:13:27.451Z,1019.56
2018-02-21T02:14:27.429Z,1019.61
2018-02-21T02:15:27.404Z,1019.64
2018-02-21T02:16:27.381Z,1019.65
2018-02-21T02:17:27.368Z,1019.62
2018-02-21T02:18:27.346Z,1019.66
2018-02-21T02:19:27.316Z,1019.68
2018-02-21T02:20:27.295Z,1019.69
2018-02-21T02:21:27.278Z,1019.68
2018-02-21T02:22:27.246Z,1019.73
2018-02-21T02:23:27.225Z,1019.69
2018-02-21T02:24:27.202Z,1019.67
2018-02-21T02:25:27.179Z,1019.71
2018-02-21T02:26:27.161Z,1019.67
2018-02-21T02:27:27.135Z,1019.66
2018-02-21T02:28:27.113Z,1019.66
2018-02-21T02:29:27.091Z,1019.71
2018-02-21T02:30:27.470Z,1019.70
2018-02-21T02:31:27.295Z,1019.69
2018-02-21T02:32:27.025Z,1019.67
2018-02-21T02:33:26.999Z,1019.69
2018-02-21T02:34:26.976Z,1019.68
2018-02-21T02:35:27.203Z,1019.74
2018-02-21T02:36:26.931Z,1019.78
2018-02-21T02:37:26.914Z,1019.76
2018-02-21T02:38:26.886Z,1019.80
2018-02-21T02:39:26.863Z,1019.74
2018-02-21T02:40:26.847Z,1019.77
2018-02-21T02:41:26.816Z,1019.76
2018-02-21T02:42:26.794Z,1019.76
2018-02-21T02:43:26.770Z,1019.80
2018-02-21T02:44:26.756Z,1019.71
2018-02-21T02:45:26.775Z,1019.71
2018-02-21T02:46:26.704Z,1019.73
2018-02-21T02:47:26.708Z,1019.74
2018-02-21T02:48:26.656Z,1019.71
2018-02-21T02:49:26.635Z,1019.70
2018-02-21T02:50:26.612Z,1019.69
2018-02-21T02:51:26.695Z,1019.68
2018-02-21T02:52:26.562Z,1019.68
2018-02-21T02:53:26.595Z,1019.68
2018-02-21T02:54:26.526Z,1019.68
2018-02-21T02:55:26.597Z,1019.68
2018-02-21T02:56:26.472Z,1019.66
2018-02-21T02:57:26.701Z,1019.67
2018-02-21T02:58:26.429Z,1019.68
2018-02-21T02:59:26.414Z,1019.69
2018-02-21T03:00:26.381Z,1019.70
2018-02-21T03:01:26.415Z,1019.67
2018-02-21T03:02:26.335Z,1019.70
2018-02-21T03:03:26.430Z,1019.68
2018-02-21T03:04:26.293Z,1019.72
2018-02-21T03:05:26.270Z,1019.67
2018-02-21T03:06:26.246Z,1019.75
2018-02-21T03:07:26.293Z,1019.67
2018-02-21T03:08:26.197Z,1019.70
2018-02-21T03:09:26.226Z,1019.71
2018-02-21T03:10:26.155Z,1019.69
2018-02-21T03:11:26.246Z,1019.69
2018-02-21T03:12:26.112Z,1019.68
2018-02-21T03:13:26.093Z,1019.73
2018-02-21T03:14:26.061Z,1019.72
2018-02-21T03:15:26.041Z,1019.69
2018-02-21T03:16:26.071Z,1019.70
2018-02-21T03:17:26.084Z,1019.69
2018-02-21T03:18:25.976Z,1019.69
2018-02-21T03:19:25.953Z,1019.70
2018-02-21T03:20:25.926Z,1019.68
2018-02-21T03:21:25.951Z,1019.74
2018-02-21T03:22:25.880Z,1019.68
2018-02-21T03:23:25.861Z,1019.68
2018-02-21T03:24:25.835Z,1019.68
2018-02-21T03:25:25.816Z,1019.76
2018-02-21T03:26:25.790Z,1019.72
2018-02-21T03:27:25.817Z,1019.70
2018-02-21T03:28:25.743Z,1019.76
2018-02-21T03:29:25.730Z,1019.75
2018-02-21T03:30:25.705Z,1019.75
2018-02-21T03:31:25.684Z,1019.72
2018-02-21T03:32:25.655Z,1019.77
2018-02-21T03:33:25.625Z,1019.72
2018-02-21T03:34:25.605Z,1019.77
2018-02-21T03:35:25.583Z,1019.74
2018-02-21T03:36:25.558Z,1019.74
2018-02-21T03:37:25.534Z,1019.75
2018-02-21T03:38:25.515Z,1019.75
2018-02-21T03:39:25.491Z,1019.78
2018-02-21T03:40:25.529Z,1019.75
2018-02-21T03:41:25.443Z,1019.72
2018-02-21T03:42:25.673Z,1019.74
2018-02-21T03:43:25.407Z,1019.70
2018-02-21T03:44:25.377Z,1019.74
2018-02-21T03:45:25.356Z,1019.71
2018-02-21T03:46:25.330Z,1019.73
2018-02-21T03:47:25.310Z,1019.73
2018-02-21T03:48:25.292Z,1019.73
2018-02-21T03:49:25.266Z,1019.75
2018-02-21T03:50:25.239Z,1019.73
2018-02-21T03:51:25.221Z,1019.76
2018-02-21T03:52:25.194Z,1019.75
2018-02-21T03:53:25.171Z,1019.75
2018-02-21T03:54:25.146Z,1019.76
2018-02-21T03:55:25.126Z,1019.76
2018-02-21T03:56:25.104Z,1019.77
2018-02-21T03:57:25.077Z,1019.72
2018-02-21T03:58:25.066Z,1019.71
2018-02-21T03:59:25.031Z,1019.75
2018-02-21T04:00:25.014Z,1019.66
2018-02-21T04:01:24.987Z,1019.68
2018-02-21T04:02:24.962Z,1019.69
2018-02-21T04:03:24.943Z,1019.68
2018-02-21T04:04:24.919Z,1019.66
2018-02-21T04:05:24.893Z,1019.63
2018-02-21T04:06:24.874Z,1019.62
2018-02-21T04:07:24.851Z,1019.61
2018-02-21T04:08:24.827Z,1019.59
2018-02-21T04:09:24.804Z,1019.55
2018-02-21T04:10:24.792Z,1019.57
2018-02-21T04:11:24.759Z,1019.55
2018-02-21T04:12:24.734Z,1019.56
2018-02-21T04:13:24.712Z,1019.55
2018-02-21T04:14:24.689Z,1019.52
2018-02-21T04:15:24.666Z,1019.55
2018-02-21T04:16:24.641Z,1019.55
2018-02-21T04:17:24.618Z,1019.54
2018-02-21T04:18:24.600Z,1019.53
2018-02-21T04:19:24.574Z,1019.54
2018-02-21T04:20:24.554Z,1019.55
2018-02-21T04:21:24.529Z,1019.56
2018-02-21T04:22:24.506Z,1019.58
2018-02-21T04:23:24.483Z,1019.60
2018-02-21T04:24:24.458Z,1019.56
2018-02-21T04:25:24.437Z,1019.54
2018-02-21T04:26:24.467Z,1019.54
2018-02-21T04:27:24.390Z,1019.57
2018-02-21T04:28:24.371Z,1019.50
2018-02-21T04:29:24.344Z,1019.56
2018-02-21T04:30:24.325Z,1019.58
2018-02-21T04:31:24.299Z,1019.55
2018-02-21T04:32:24.284Z,1019.64
2018-02-21T04:33:24.250Z,1019.65
2018-02-21T04:34:24.267Z,1019.65
2018-02-21T04:35:24.205Z,1019.71
2018-02-21T04:36:24.280Z,1019.75
2018-02-21T04:37:24.165Z,1019.74
2018-02-21T04:38:24.187Z,1019.74
2018-02-21T04:39:24.114Z,1019.73
2018-02-21T04:40:24.157Z,1019.75
2018-02-21T04:41:24.067Z,1019.72
2018-02-21T04:42:24.096Z,1019.76
2018-02-21T04:43:24.025Z,1019.75
2018-02-21T04:44:24.498Z,1019.72
2018-02-21T04:45:23.976Z,1019.74
2018-02-21T04:46:24.002Z,1019.74
2018-02-21T04:47:23.935Z,1019.75
2018-02-21T04:48:24.006Z,1019.72
2018-02-21T04:49:23.913Z,1019.73
2018-02-21T04:50:23.919Z,1019.70
2018-02-21T04:51:23.846Z,1019.69
2018-02-21T04:52:23.816Z,1019.68
2018-02-21T04:53:23.792Z,1019.71
2018-02-21T04:54:23.785Z,1019.71
2018-02-21T04:55:23.746Z,1019.71
2018-02-21T04:56:23.720Z,1019.66
2018-02-21T04:57:23.700Z,1019.69
2018-02-21T04:58:23.675Z,1019.72
2018-02-21T04:59:23.711Z,1019.74
2018-02-21T05:00:23.640Z,1019.77
2018-02-21T05:01:23.611Z,1019.75
2018-02-21T05:02:23.584Z,1019.81
2018-02-21T05:03:23.809Z,1019.82
2018-02-21T05:04:23.537Z,1019.85
2018-02-21T05:05:23.516Z,1019.87
2018-02-21T05:06:23.494Z,1019.89
2018-02-21T05:07:23.473Z,1019.89
2018-02-21T05:08:23.695Z,1019.89
2018-02-21T05:09:23.424Z,1019.85
2018-02-21T05:10:23.407Z,1019.83
2018-02-21T05:11:23.377Z,1019.85
2018-02-21T05:12:23.352Z,1019.83
2018-02-21T05:13:23.330Z,1019.85
2018-02-21T05:14:23.307Z,1019.87
2018-02-21T05:15:23.288Z,1019.93
2018-02-21T05:16:23.263Z,1019.91
2018-02-21T05:17:23.236Z,1019.95
2018-02-21T05:18:23.212Z,1019.99
2018-02-21T05:19:23.197Z,1019.97
2018-02-21T05:20:23.169Z,1020.01
2018-02-21T05:21:23.145Z,1020.00
2018-02-21T05:22:23.124Z,1020.00
2018-02-21T05:23:23.347Z,1020.01
2018-02-21T05:24:23.079Z,1020.02
2018-02-21T05:25:23.053Z,1020.02
2018-02-21T05:26:23.028Z,1020.05
2018-02-21T05:27:23.007Z,1020.09
2018-02-21T05:28:22.983Z,1020.15
2018-02-21T05:29:22.959Z,1020.15
2018-02-21T05:30:22.938Z,1020.18
2018-02-21T05:31:22.918Z,1020.18
2018-02-21T05:32:22.892Z,1020.20
2018-02-21T05:33:23.167Z,1020.16
2018-02-21T05:34:22.847Z,1020.15
2018-02-21T05:35:22.826Z,1020.09
2018-02-21T05:36:22.802Z,1020.12
2018-02-21T05:37:22.774Z,1020.16
2018-02-21T05:38:22.759Z,1020.16
2018-02-21T05:39:22.728Z,1020.18
2018-02-21T05:40:22.705Z,1020.20
2018-02-21T05:41:22.682Z,1020.19
2018-02-21T05:42:22.669Z,1020.25
2018-02-21T05:43:22.635Z,1020.32
2018-02-21T05:44:22.614Z,1020.29
2018-02-21T05:45:22.597Z,1020.27
2018-02-21T05:46:22.566Z,1020.29
2018-02-21T05:47:22.546Z,1020.29
2018-02-21T05:48:22.521Z,1020.33
2018-02-21T05:49:22.495Z,1020.34
2018-02-21T05:50:22.473Z,1020.31
2018-02-21T05:51:22.451Z,1020.29
2018-02-21T05:52:22.437Z,1020.31
2018-02-21T05:53:22.410Z,1020.31
2018-02-21T05:54:22.386Z,1020.29
2018-02-21T05:55:22.363Z,1020.33
2018-02-21T05:56:22.334Z,1020.31
2018-02-21T05:57:22.326Z,1020.32
2018-02-21T05:58:22.296Z,1020.37
2018-02-21T05:59:22.317Z,1020.41
2018-02-21T06:00:22.245Z,1020.38
2018-02-21T06:01:22.221Z,1020.39
2018-02-21T06:02:22.206Z,1020.42
2018-02-21T06:03:22.176Z,1020.43
2018-02-21T06:04:22.153Z,1020.47
2018-02-21T06:05:22.142Z,1020.50
2018-02-21T06:06:22.107Z,1020.51
2018-02-21T06:07:22.133Z,1020.44
2018-02-21T06:08:22.057Z,1020.50
2018-02-21T06:09:22.087Z,1020.54
2018-02-21T06:10:22.014Z,1020.52
2018-02-21T06:11:21.997Z,1020.55
2018-02-21T06:12:21.966Z,1020.56
2018-02-21T06:13:21.982Z,1020.50
2018-02-21T06:14:21.919Z,1020.55
2018-02-21T06:15:21.908Z,1020.57
2018-02-21T06:16:21.879Z,1020.57
2018-02-21T06:17:21.855Z,1020.55
2018-02-21T06:18:21.835Z,1020.54
2018-02-21T06:19:21.808Z,1020.55
2018-02-21T06:20:21.794Z,1020.52
2018-02-21T06:21:21.761Z,1020.54
2018-02-21T06:22:21.736Z,1020.52
2018-02-21T06:23:21.713Z,1020.53
2018-02-21T06:24:21.994Z,1020.53
2018-02-21T06:25:21.667Z,1020.52
2018-02-21T06:26:21.647Z,1020.52
2018-02-21T06:27:21.623Z,1020.48
2018-02-21T06:28:21.610Z,1020.51
2018-02-21T06:29:21.575Z,1020.54
2018-02-21T06:30:21.556Z,1020.52
2018-02-21T06:31:21.531Z,1020.49
2018-02-21T06:32:21.506Z,1020.50
2018-02-21T06:33:21.483Z,1020.47
2018-02-21T06:34:21.460Z,1020.48
2018-02-21T06:35:21.444Z,1020.43
2018-02-21T06:36:21.414Z,1020.45
2018-02-21T06:37:21.396Z,1020.44
2018-02-21T06:38:21.377Z,1020.40
2018-02-21T06:39:21.346Z,1020.40
2018-02-21T06:40:21.324Z,1020.44
2018-02-21T06:41:21.297Z,1020.41
2018-02-21T06:42:21.275Z,1020.42
2018-02-21T06:43:21.287Z,1020.42
2018-02-21T06:44:21.483Z,1020.45
2018-02-21T06:45:21.207Z,1020.46
2018-02-21T06:46:21.186Z,1020.49
2018-02-21T06:47:21.166Z,1020.48
2018-02-21T06:48:21.145Z,1020.44
2018-02-21T06:49:21.366Z,1020.52
2018-02-21T06:50:21.093Z,1020.56
2018-02-21T06:51:21.068Z,1020.53
2018-02-21T06:52:21.048Z,1020.53
2018-02-21T06:53:21.023Z,1020.55
2018-02-21T06:54:21.258Z,1020.58
2018-02-21T06:55:20.982Z,1020.55
2018-02-21T06:56:20.956Z,1020.54
2018-02-21T06:57:20.936Z,1020.57
2018-02-21T06:58:20.919Z,1020.60
2018-02-21T06:59:20.900Z,1020.59
2018-02-21T07:00:20.866Z,1020.60
2018-02-21T07:01:20.839Z,1020.69
2018-02-21T07:02:20.815Z,1020.71
2018-02-21T07:03:20.795Z,1020.68
2018-02-21T07:04:20.769Z,1020.68
2018-02-21T07:05:20.753Z,1020.73
2018-02-21T07:06:20.726Z,1020.70
2018-02-21T07:07:20.708Z,1020.75
2018-02-21T07:08:20.681Z,1020.74
2018-02-21T07:09:20.664Z,1020.78
2018-02-21T07:10:20.636Z,1020.78
2018-02-21T07:11:20.610Z,1020.78
2018-02-21T07:12:20.590Z,1020.78
2018-02-21T07:13:20.587Z,1020.83
2018-02-21T07:14:20.547Z,1020.83
2018-02-21T07:15:20.554Z,1020.83
2018-02-21T07:16:20.499Z,1020.85
2018-02-21T07:17:20.478Z,1020.85
2018-02-21T07:18:20.456Z,1020.83
2018-02-21T07:19:20.443Z,1020.85
2018-02-21T07:20:20.415Z,1020.87
2018-02-21T07:21:20.387Z,1020.86
2018-02-21T07:22:20.366Z,1020.88
2018-02-21T07:23:20.343Z,1020.89
2018-02-21T07:24:20.468Z,1020.91
2018-02-21T07:25:20.508Z,1020.96
2018-02-21T07:26:20.279Z,1020.94
2018-02-21T07:27:20.253Z,1020.93
2018-02-21T07:28:20.228Z,1020.93
2018-02-21T07:29:20.207Z,1021.01
2018-02-21T07:30:20.185Z,1020.96
2018-02-21T07:31:20.175Z,1020.97
2018-02-21T07:32:20.142Z,1020.99
2018-02-21T07:33:20.116Z,1020.96
2018-02-21T07:34:20.095Z,1020.97
2018-02-21T07:35:20.079Z,1020.99
2018-02-21T07:36:20.054Z,1020.96
2018-02-21T07:37:20.029Z,1020.96
2018-02-21T07:38:20.006Z,1020.98
2018-02-21T07:39:19.985Z,1020.92
2018-02-21T07:40:19.967Z,1020.96
2018-02-21T07:41:19.944Z,1020.95
2018-02-21T07:42:19.921Z,1020.96
2018-02-21T07:43:19.898Z,1020.99
2018-02-21T07:44:19.880Z,1021.00
2018-02-21T07:45:19.856Z,1020.96
2018-02-21T07:46:19.832Z,1021.02
2018-02-21T07:47:19.810Z,1021.01
2018-02-21T07:48:19.787Z,1021.02
2018-02-21T07:49:19.767Z,1021.07
2018-02-21T07:50:19.757Z,1021.06
2018-02-21T07:51:19.722Z,1021.07
2018-02-21T07:52:19.698Z,1021.09
2018-02-21T07:53:19.677Z,1021.12
2018-02-21T07:54:19.669Z,1021.13
2018-02-21T07:55:19.637Z,1021.16
2018-02-21T07:56:19.611Z,1021.19
2018-02-21T07:57:19.589Z,1021.11
2018-02-21T07:58:19.577Z,1021.09
2018-02-21T07:59:19.549Z,1021.11
2018-02-21T08:00:19.527Z,1021.06
2018-02-21T08:01:19.505Z,1021.10
2018-02-21T08:02:19.483Z,1021.06
2018-02-21T08:03:19.459Z,1021.08
2018-02-21T08:04:19.435Z,1021.09
2018-02-21T08:05:19.431Z,1021.16
2018-02-21T08:06:19.397Z,1021.14
2018-02-21T08:07:19.373Z,1021.12
2018-02-21T08:08:19.360Z,1021.13
2018-02-21T08:09:19.336Z,1021.15
2018-02-21T08:10:19.306Z,1021.21
2018-02-21T08:11:19.287Z,1021.20
2018-02-21T08:12:19.263Z,1021.21
2018-02-21T08:13:19.241Z,1021.23
2018-02-21T08:14:19.227Z,1021.25
2018-02-21T08:15:19.235Z,1021.27
2018-02-21T08:16:19.179Z,1021.25
2018-02-21T08:17:19.156Z,1021.25
2018-02-21T08:18:19.136Z,1021.23
2018-02-21T08:19:19.122Z,1021.24
2018-02-21T08:20:19.098Z,1021.26
2018-02-21T08:21:19.072Z,1021.28
2018-02-21T08:22:19.048Z,1021.26
2018-02-21T08:23:19.031Z,1021.27
2018-02-21T08:24:19.007Z,1021.27
2018-02-21T08:25:18.984Z,1021.27
2018-02-21T08:26:18.966Z,1021.30
2018-02-21T08:27:18.953Z,1021.29
2018-02-21T08:28:18.946Z,1021.30
2018-02-21T08:29:18.902Z,1021.29
2018-02-21T08:30:18.880Z,1021.33
2018-02-21T08:31:18.864Z,1021.35
2018-02-21T08:32:18.840Z,1021.32
2018-02-21T08:33:18.819Z,1021.31
2018-02-21T08:34:18.797Z,1021.28
2018-02-21T08:35:18.775Z,1021.37
2018-02-21T08:36:18.755Z,1021.40
2018-02-21T08:37:18.734Z,1021.40
2018-02-21T08:38:18.736Z,1021.38
2018-02-21T08:39:18.694Z,1021.38
2018-02-21T08:40:18.676Z,1021.46
2018-02-21T08:41:18.648Z,1021.50
2018-02-21T08:42:18.684Z,1021.70
2018-02-21T08:43:18.610Z,1021.85
2018-02-21T08:44:18.586Z,1022.02
2018-02-21T08:45:18.573Z,1022.19
2018-02-21T08:46:18.557Z,1022.32
2018-02-21T08:47:18.726Z,1022.20
2018-02-21T08:48:19.121Z,1021.90
2018-02-21T08:49:18.488Z,1021.93
2018-02-21T08:50:18.474Z,1022.24
2018-02-21T08:51:18.548Z,1022.19
2018-02-21T08:52:18.434Z,1022.25
2018-02-21T08:53:18.407Z,1022.07
2018-02-21T08:54:18.407Z,1022.09
2018-02-21T08:55:18.374Z,1022.14
2018-02-21T08:56:18.354Z,1022.23
2018-02-21T08:57:18.334Z,1022.07
2018-02-21T08:58:18.330Z,1021.90
2018-02-21T08:59:18.297Z,1022.13
2018-02-21T09:00:18.286Z,1022.40
2018-02-21T09:01:18.260Z,1022.27
2018-02-21T09:02:18.355Z,1022.27
2018-02-21T09:03:18.224Z,1022.20
2018-02-21T09:04:18.216Z,1021.95
2018-02-21T09:05:18.193Z,1021.96
2018-02-21T09:06:18.184Z,1022.08
2018-02-21T09:07:18.160Z,1021.88
2018-02-21T09:08:18.147Z,1021.85
2018-02-21T09:09:18.126Z,1021.81
2018-02-21T09:10:18.114Z,1021.88
2018-02-21T09:11:18.096Z,1021.89
2018-02-21T09:12:18.081Z,1021.80
2018-02-21T09:13:18.065Z,1021.74
2018-02-21T09:14:18.050Z,1021.78
2018-02-21T09:15:18.038Z,1021.88
2018-02-21T09:16:18.014Z,1021.92
2018-02-21T09:17:17.996Z,1021.78
2018-02-21T09:18:17.993Z,1021.77
2018-02-21T09:19:17.963Z,1021.79
2018-02-21T09:20:18.501Z,1021.70
2018-02-21T09:21:17.977Z,1021.68
2018-02-21T09:22:17.925Z,1021.80
2018-02-21T09:23:17.923Z,1022.01
2018-02-21T09:24:17.886Z,1021.93
2018-02-21T09:25:17.872Z,1021.75
2018-02-21T09:26:17.908Z,1021.76
2018-02-21T09:27:17.836Z,1021.75
2018-02-21T09:28:17.872Z,1021.74
2018-02-21T09:29:17.806Z,1021.62
2018-02-21T09:30:17.790Z,1021.57
2018-02-21T09:31:17.771Z,1021.62
2018-02-21T09:32:17.756Z,1021.62
2018-02-21T09:33:17.740Z,1021.64
2018-02-21T09:34:17.722Z,1021.60
2018-02-21T09:35:17.709Z,1021.48
2018-02-21T09:36:17.742Z,1021.47
2018-02-21T09:37:17.675Z,1021.51
2018-02-21T09:38:17.659Z,1021.49
2018-02-21T09:39:17.646Z,1021.47
2018-02-21T09:40:17.632Z,1021.48
2018-02-21T09:41:17.620Z,1021.47
2018-02-21T09:42:17.605Z,1021.47
2018-02-21T09:43:17.579Z,1021.50
2018-02-21T09:44:17.565Z,1021.48
2018-02-21T09:45:17.549Z,1021.46
2018-02-21T09:46:17.529Z,1021.49
2018-02-21T09:47:17.513Z,1021.56
2018-02-21T09:48:17.511Z,1021.56
2018-02-21T09:49:17.483Z,1021.70
2018-02-21T09:50:17.466Z,1021.86
2018-02-21T09:51:17.454Z,1021.90
2018-02-21T09:52:17.435Z,1021.92
2018-02-21T09:53:17.419Z,1021.94
2018-02-21T09:54:17.403Z,1022.06
2018-02-21T09:55:17.386Z,1022.25
2018-02-21T09:56:17.367Z,1022.09
2018-02-21T09:57:17.356Z,1022.06
2018-02-21T09:58:17.340Z,1022.10
2018-02-21T09:59:17.325Z,1022.22
2018-02-21T10:00:17.321Z,1022.32
2018-02-21T10:01:17.296Z,1022.46
2018-02-21T10:02:17.285Z,1022.46
2018-02-21T10:03:17.274Z,1022.42
2018-02-21T10:04:17.257Z,1022.49
2018-02-21T10:05:17.246Z,1022.65
2018-02-21T10:06:17.234Z,1022.54
2018-02-21T10:07:17.229Z,1022.54
2018-02-21T10:08:17.213Z,1022.60
2018-02-21T10:09:17.204Z,1022.65
2018-02-21T10:10:17.209Z,1022.77
2018-02-21T10:11:17.437Z,1022.60
2018-02-21T10:12:17.174Z,1022.65
2018-02-21T10:13:17.166Z,1022.52
2018-02-21T10:14:17.158Z,1022.51
2018-02-21T10:15:17.155Z,1022.35
2018-02-21T10:16:17.395Z,1022.47
2018-02-21T10:17:17.137Z,1022.56
2018-02-21T10:18:17.135Z,1022.54
2018-02-21T10:19:17.125Z,1022.49
2018-02-21T10:20:17.122Z,1022.76
2018-02-21T10:21:17.113Z,1022.85
2018-02-21T10:22:17.112Z,1022.82
2018-02-21T10:23:17.109Z,1022.74
2018-02-21T10:24:17.101Z,1022.69
2018-02-21T10:25:17.345Z,1022.79
2018-02-21T10:26:17.599Z,1022.74
2018-02-21T10:27:17.091Z,1022.71
2018-02-21T10:28:17.091Z,1022.63
2018-02-21T10:29:17.085Z,1022.72
2018-02-21T10:30:17.084Z,1022.75
2018-02-21T10:31:17.082Z,1022.68
2018-02-21T10:32:17.082Z,1022.53
2018-02-21T10:33:17.088Z,1022.67
2018-02-21T10:34:17.085Z,1022.70
2018-02-21T10:35:17.087Z,1022.68
2018-02-21T10:36:17.332Z,1022.61
2018-02-21T10:37:17.085Z,1022.45
2018-02-21T10:38:17.078Z,1022.37
2018-02-21T10:39:17.093Z,1022.16
2018-02-21T10:40:17.076Z,1022.17
2018-02-21T10:41:17.330Z,1022.36
2018-02-21T10:42:17.090Z,1022.44
2018-02-21T10:43:17.083Z,1022.26
2018-02-21T10:44:17.080Z,1022.22
2018-02-21T10:45:17.081Z,1022.32
2018-02-21T10:46:17.332Z,1022.29
2018-02-21T10:47:17.086Z,1022.49
2018-02-21T10:48:17.085Z,1022.38
2018-02-21T10:49:17.082Z,1022.43
2018-02-21T10:50:17.085Z,1022.44
2018-02-21T10:51:17.090Z,1022.50
2018-02-21T10:52:17.086Z,1022.48
2018-02-21T10:53:17.084Z,1022.40
2018-02-21T10:54:17.088Z,1022.45
2018-02-21T10:55:17.087Z,1022.48
2018-02-21T10:56:17.088Z,1022.39
2018-02-21T10:57:17.088Z,1022.47
2018-02-21T10:58:17.089Z,1022.46
2018-02-21T10:59:17.099Z,1022.45
2018-02-21T11:00:17.096Z,1022.49
2018-02-21T11:01:17.347Z,1022.54
2018-02-21T11:02:17.095Z,1022.54
2018-02-21T11:03:17.097Z,1022.53
2018-02-21T11:04:17.095Z,1022.50
2018-02-21T11:05:17.098Z,1022.49
2018-02-21T11:06:17.098Z,1022.41
2018-02-21T11:07:17.104Z,1022.51
2018-02-21T11:08:17.105Z,1022.60
2018-02-21T11:09:17.104Z,1022.55
2018-02-21T11:10:17.105Z,1022.46
2018-02-21T11:11:17.157Z,1021.86
2018-02-21T11:12:17.113Z,1021.79
2018-02-21T11:13:17.114Z,1022.30
2018-02-21T11:14:17.115Z,1022.21
2018-02-21T11:15:17.114Z,1021.94
2018-02-21T11:16:17.372Z,1022.34
2018-02-21T11:17:17.120Z,1022.39
2018-02-21T11:18:17.118Z,1022.37
2018-02-21T11:19:17.124Z,1021.80
2018-02-21T11:20:17.123Z,1021.72
2018-02-21T11:21:17.125Z,1021.83
2018-02-21T11:22:17.124Z,1022.36
2018-02-21T11:23:17.124Z,1022.24
2018-02-21T11:24:17.172Z,1021.82
2018-02-21T11:25:17.125Z,1021.66
2018-02-21T11:26:17.384Z,1021.67
2018-02-21T11:27:17.126Z,1021.63
2018-02-21T11:28:17.127Z,1021.64
2018-02-21T11:29:17.124Z,1021.59
2018-02-21T11:30:17.122Z,1021.63
2018-02-21T11:31:17.128Z,1021.88
2018-02-21T11:32:17.119Z,1021.70
2018-02-21T11:33:17.120Z,1021.70
2018-02-21T11:34:17.120Z,1022.08
2018-02-21T11:35:17.113Z,1022.70
2018-02-21T11:36:17.367Z,1021.78
2018-02-21T11:37:17.112Z,1021.73
2018-02-21T11:38:17.127Z,1021.76
2018-02-21T11:39:17.105Z,1022.70
2018-02-21T11:40:17.105Z,1022.82
2018-02-21T11:41:17.401Z,1022.79
2018-02-21T11:42:17.098Z,1022.77
2018-02-21T11:43:17.093Z,1021.81
2018-02-21T11:44:17.092Z,1021.77
2018-02-21T11:45:17.094Z,1021.77
2018-02-21T11:46:17.340Z,1021.81
2018-02-21T11:47:17.085Z,1022.60
2018-02-21T11:48:17.084Z,1021.85
2018-02-21T11:49:17.078Z,1021.75
2018-02-21T11:50:17.076Z,1021.76
2018-02-21T11:51:17.076Z,1021.73
2018-02-21T11:52:17.074Z,1021.76
2018-02-21T11:53:17.075Z,1021.68
2018-02-21T11:54:17.069Z,1021.68
2018-02-21T11:55:17.058Z,1021.67
2018-02-21T11:56:17.055Z,1022.03
2018-02-21T11:57:17.050Z,1022.11
2018-02-21T11:58:17.052Z,1021.75
2018-02-21T11:59:17.041Z,1022.09
2018-02-21T12:00:17.036Z,1021.72
2018-02-21T12:01:17.029Z,1021.64
2018-02-21T12:02:17.027Z,1021.65
2018-02-21T12:03:17.020Z,1022.25
2018-02-21T12:04:17.015Z,1022.15
2018-02-21T12:05:17.008Z,1022.22